Terminal Aerodrome Forecast
Issued by NWS Raleigh/Durham, NC

Home | Current Version | Previous Version | Text Only | Print | Product List | Glossary On
Versions: 1 2 3 4 5 6 7 8 9 10 11 12 13 14 15 16 17 18 19 20
000
FTUS42 KRAH 181140
TAFRDU
TAF
KRDU 181140Z 1812/1912 04009KT P6SM SCT040 BKN200
      TEMPO 1812/1814 BKN009 OVC200
     FM190600 04009KT 6SM -RA SCT025 BKN040 OVC070=

USA.gov is the U.S. government's official web portal to all federal, state and local government web resources and services.